sensor_id;sensor_type;location;lat;lon;timestamp;pressure;altitude;pressure_sealevel;temperature;humidity
57574;BME280;68988;49.000;21.242;2024-02-21T00:00:04;99155.66;;;22.96;37.81
57574;BME280;68988;49.000;21.242;2024-02-21T00:02:30;99148.69;;;22.95;38.02
57574;BME280;68988;49.000;21.242;2024-02-21T00:04:55;99151.59;;;22.93;37.88
57574;BME280;68988;49.000;21.242;2024-02-21T00:07:21;99161.81;;;22.96;37.93
57574;BME280;68988;49.000;21.242;2024-02-21T00:09:46;99154.03;;;22.95;38.04
57574;BME280;68988;49.000;21.242;2024-02-21T00:12:11;99152.16;;;22.95;37.85
57574;BME280;68988;49.000;21.242;2024-02-21T00:14:39;99147.63;;;22.96;37.76
57574;BME280;68988;49.000;21.242;2024-02-21T00:17:05;99153.78;;;22.96;37.90
57574;BME280;68988;49.000;21.242;2024-02-21T00:19:30;99146.00;;;22.95;37.94
57574;BME280;68988;49.000;21.242;2024-02-21T00:21:56;99147.88;;;22.94;37.94
57574;BME280;68988;49.000;21.242;2024-02-21T00:24:21;99147.38;;;22.97;37.75
57574;BME280;68988;49.000;21.242;2024-02-21T00:26:46;99152.41;;;22.94;37.80
57574;BME280;68988;49.000;21.242;2024-02-21T00:29:12;99145.13;;;22.89;37.81
57574;BME280;68988;49.000;21.242;2024-02-21T00:31:37;99150.31;;;22.96;37.87
57574;BME280;68988;49.000;21.242;2024-02-21T00:34:02;99154.81;;;22.95;37.78
57574;BME280;68988;49.000;21.242;2024-02-21T00:36:28;99147.88;;;22.94;37.89
57574;BME280;68988;49.000;21.242;2024-02-21T00:38:53;99143.59;;;22.93;37.70
57574;BME280;68988;49.000;21.242;2024-02-21T00:41:18;99143.84;;;22.92;37.75
57574;BME280;68988;49.000;21.242;2024-02-21T00:43:44;99144.06;;;22.90;37.96
57574;BME280;68988;49.000;21.242;2024-02-21T00:46:09;99138.47;;;22.92;37.77
57574;BME280;68988;49.000;21.242;2024-02-21T00:48:34;99140.91;;;22.93;37.66
57574;BME280;68988;49.000;21.242;2024-02-21T00:51:00;99142.78;;;22.93;37.83
57574;BME280;68988;49.000;21.242;2024-02-21T00:53:25;99133.94;;;22.92;37.87
57574;BME280;68988;49.000;21.242;2024-02-21T00:55:51;99140.91;;;22.93;37.93
57574;BME280;68988;49.000;21.242;2024-02-21T00:58:16;99140.91;;;22.93;37.96
57574;BME280;68988;49.000;21.242;2024-02-21T01:00:42;99140.66;;;22.95;37.83
57574;BME280;68988;49.000;21.242;2024-02-21T01:03:07;99133.38;;;22.90;38.02
57574;BME280;68988;49.000;21.242;2024-02-21T01:05:33;99139.84;;;22.94;37.65
57574;BME280;68988;49.000;21.242;2024-02-21T01:07:58;99131.84;;;22.94;37.72
57574;BME280;68988;49.000;21.242;2024-02-21T01:10:23;99137.97;;;22.95;37.75
57574;BME280;68988;49.000;21.242;2024-02-21T01:12:49;99132.34;;;22.91;37.75
57574;BME280;68988;49.000;21.242;2024-02-21T01:15:14;99135.56;;;22.93;37.49
57574;BME280;68988;49.000;21.242;2024-02-21T01:17:39;99132.09;;;22.93;37.63
57574;BME280;68988;49.000;21.242;2024-02-21T01:20:06;99130.22;;;22.93;37.75
57574;BME280;68988;49.000;21.242;2024-02-21T01:22:32;99135.00;;;22.91;37.69
57574;BME280;68988;49.000;21.242;2024-02-21T01:24:57;99132.88;;;22.93;37.71
57574;BME280;68988;49.000;21.242;2024-02-21T01:27:23;99132.34;;;22.91;37.84
57574;BME280;68988;49.000;21.242;2024-02-21T01:29:48;99129.16;;;22.94;37.56
57574;BME280;68988;49.000;21.242;2024-02-21T01:32:15;99125.41;;;22.95;37.57
57574;BME280;68988;49.000;21.242;2024-02-21T01:34:40;99124.06;;;22.93;37.80
57574;BME280;68988;49.000;21.242;2024-02-21T01:37:06;99129.16;;;22.94;37.66
57574;BME280;68988;49.000;21.242;2024-02-21T01:39:33;99118.38;;;22.89;37.43
57574;BME280;68988;49.000;21.242;2024-02-21T01:41:58;99126.50;;;22.94;37.78
57574;BME280;68988;49.000;21.242;2024-02-21T01:44:24;99118.13;;;22.91;37.62
57574;BME280;68988;49.000;21.242;2024-02-21T01:46:49;99122.19;;;22.93;37.63
57574;BME280;68988;49.000;21.242;2024-02-21T01:49:16;99121.88;;;22.89;37.62
57574;BME280;68988;49.000;21.242;2024-02-21T01:51:42;99123.22;;;22.92;37.69
57574;BME280;68988;49.000;21.242;2024-02-21T01:54:08;99112.53;;;22.92;37.79
57574;BME280;68988;49.000;21.242;2024-02-21T01:56:33;99113.38;;;22.93;37.54
57574;BME280;68988;49.000;21.242;2024-02-21T01:58:59;99112.53;;;22.92;37.68
57574;BME280;68988;49.000;21.242;2024-02-21T02:01:25;99112.53;;;22.92;37.67
57574;BME280;68988;49.000;21.242;2024-02-21T02:03:50;99116.84;;;22.93;37.61
57574;BME280;68988;49.000;21.242;2024-02-21T02:06:16;99111.50;;;22.93;37.67
57574;BME280;68988;49.000;21.242;2024-02-21T02:08:41;99110.69;;;22.93;37.51
57574;BME280;68988;49.000;21.242;2024-02-21T02:11:07;99107.44;;;22.91;37.57
57574;BME280;68988;49.000;21.242;2024-02-21T02:13:32;99098.63;;;22.90;37.43
57574;BME280;68988;49.000;21.242;2024-02-21T02:15:58;99110.94;;;22.91;37.68
57574;BME280;68988;49.000;21.242;2024-02-21T02:18:23;99107.69;;;22.89;37.53
57574;BME280;68988;49.000;21.242;2024-02-21T02:20:49;99113.63;;;22.91;37.51
57574;BME280;68988;49.000;21.242;2024-02-21T02:23:30;99110.69;;;22.93;37.65
57574;BME280;68988;49.000;21.242;2024-02-21T02:25:58;99117.59;;;22.88;37.70
57574;BME280;68988;49.000;21.242;2024-02-21T02:28:24;99108.75;;;22.88;37.52
57574;BME280;68988;49.000;21.242;2024-02-21T02:30:50;99116.28;;;22.91;37.55
57574;BME280;68988;49.000;21.242;2024-02-21T02:33:15;99106.88;;;22.88;37.62
57574;BME280;68988;49.000;21.242;2024-02-21T02:35:43;99112.22;;;22.88;37.75
57574;BME280;68988;49.000;21.242;2024-02-21T02:38:08;99117.34;;;22.90;37.42
57574;BME280;68988;49.000;21.242;2024-02-21T02:40:35;99118.38;;;22.89;37.72
57574;BME280;68988;49.000;21.242;2024-02-21T02:43:00;99107.38;;;22.85;37.72
57574;BME280;68988;49.000;21.242;2024-02-21T02:45:26;99112.53;;;22.92;37.57
57574;BME280;68988;49.000;21.242;2024-02-21T02:47:54;99107.19;;;22.92;37.48
57574;BME280;68988;49.000;21.242;2024-02-21T02:50:22;99116.28;;;22.91;37.57
57574;BME280;68988;49.000;21.242;2024-02-21T02:52:47;99110.38;;;22.89;37.50
57574;BME280;68988;49.000;21.242;2024-02-21T02:55:13;99114.66;;;22.90;37.63
57574;BME280;68988;49.000;21.242;2024-02-21T02:57:39;99117.84;;;22.87;37.51
57574;BME280;68988;49.000;21.242;2024-02-21T03:00:07;99121.06;;;22.89;37.68
57574;BME280;68988;49.000;21.242;2024-02-21T03:02:32;99117.34;;;22.90;37.65
57574;BME280;68988;49.000;21.242;2024-02-21T03:04:58;99122.13;;;22.88;37.60
57574;BME280;68988;49.000;21.242;2024-02-21T03:07:25;99123.72;;;22.89;37.49
57574;BME280;68988;49.000;21.242;2024-02-21T03:09:50;99115.72;;;22.89;37.43
57574;BME280;68988;49.000;21.242;2024-02-21T03:12:16;99116.78;;;22.88;37.56
57574;BME280;68988;49.000;21.242;2024-02-21T03:14:49;99120.25;;;22.88;37.45
57574;BME280;68988;49.000;21.242;2024-02-21T03:17:15;99122.69;;;22.90;37.37
57574;BME280;68988;49.000;21.242;2024-02-21T03:19:40;99122.69;;;22.90;37.38
57574;BME280;68988;49.000;21.242;2024-02-21T03:22:05;99108.69;;;22.83;37.48
57574;BME280;68988;49.000;21.242;2024-02-21T03:24:31;99119.47;;;22.88;37.39
57574;BME280;68988;49.000;21.242;2024-02-21T03:26:56;99127.22;;;22.89;37.50
57574;BME280;68988;49.000;21.242;2024-02-21T03:29:24;99120.00;;;22.90;37.58
57574;BME280;68988;49.000;21.242;2024-02-21T03:31:49;99121.31;;;22.87;37.58
57574;BME280;68988;49.000;21.242;2024-02-21T03:34:14;99128.28;;;22.88;37.44
57574;BME280;68988;49.000;21.242;2024-02-21T03:36:40;99132.00;;;22.87;37.37
57574;BME280;68988;49.000;21.242;2024-02-21T03:39:05;99133.88;;;22.87;37.38
57574;BME280;68988;49.000;21.242;2024-02-21T03:41:30;99138.44;;;22.86;37.72
57574;BME280;68988;49.000;21.242;2024-02-21T03:43:56;99127.47;;;22.88;37.54
57574;BME280;68988;49.000;21.242;2024-02-21T03:46:21;99132.81;;;22.88;37.46
57574;BME280;68988;49.000;21.242;2024-02-21T03:48:46;99135.50;;;22.88;37.46
57574;BME280;68988;49.000;21.242;2024-02-21T03:51:12;99133.63;;;22.88;37.46
57574;BME280;68988;49.000;21.242;2024-02-21T03:53:37;99132.81;;;22.88;37.45
57574;BME280;68988;49.000;21.242;2024-02-21T03:56:03;99138.19;;;22.88;37.52
57574;BME280;68988;49.000;21.242;2024-02-21T03:58:32;99142.69;;;22.87;37.37
57574;BME280;68988;49.000;21.242;2024-02-21T04:01:00;99137.34;;;22.87;37.49
57574;BME280;68988;49.000;21.242;2024-02-21T04:03:26;99136.56;;;22.87;37.35
57574;BME280;68988;49.000;21.242;2024-02-21T04:05:52;99138.44;;;22.86;37.43
57574;BME280;68988;49.000;21.242;2024-02-21T04:08:17;99133.31;;;22.85;37.72
57574;BME280;68988;49.000;21.242;2024-02-21T04:10:42;99134.13;;;22.85;37.31
57574;BME280;68988;49.000;21.242;2024-02-21T04:13:08;99136.25;;;22.83;37.30
57574;BME280;68988;49.000;21.242;2024-02-21T04:15:34;99138.91;;;22.83;37.48
57574;BME280;68988;49.000;21.242;2024-02-21T04:18:00;99138.66;;;22.85;37.46
57574;BME280;68988;49.000;21.242;2024-02-21T04:20:25;99137.84;;;22.84;37.57
57574;BME280;68988;49.000;21.242;2024-02-21T04:22:50;99133.31;;;22.85;37.53
57574;BME280;68988;49.000;21.242;2024-02-21T04:25:16;99142.94;;;22.86;37.28
57574;BME280;68988;49.000;21.242;2024-02-21T04:27:41;99143.78;;;22.86;37.25
57574;BME280;68988;49.000;21.242;2024-02-21T04:30:07;99133.81;;;22.82;37.52
57574;BME280;68988;49.000;21.242;2024-02-21T04:32:33;99136.00;;;22.85;37.28
57574;BME280;68988;49.000;21.242;2024-02-21T04:34:58;99144.81;;;22.85;37.28
57574;BME280;68988;49.000;21.242;2024-02-21T04:37:24;99144.03;;;22.85;37.33
57574;BME280;68988;49.000;21.242;2024-02-21T04:39:50;99141.34;;;22.85;37.25
57574;BME280;68988;49.000;21.242;2024-02-21T04:42:15;99148.53;;;22.84;37.32
57574;BME280;68988;49.000;21.242;2024-02-21T04:44:41;99140.28;;;22.86;37.27
57574;BME280;68988;49.000;21.242;2024-02-21T04:47:06;99137.84;;;22.84;37.40
57574;BME280;68988;49.000;21.242;2024-02-21T04:49:32;99136.56;;;22.87;37.47
57574;BME280;68988;49.000;21.242;2024-02-21T04:51:57;99141.66;;;22.88;37.43
57574;BME280;68988;49.000;21.242;2024-02-21T04:54:22;99128.53;;;22.87;37.48
57574;BME280;68988;49.000;21.242;2024-02-21T04:56:48;99136.56;;;22.87;37.39
57574;BME280;68988;49.000;21.242;2024-02-21T04:59:13;99135.25;;;22.89;37.43
57574;BME280;68988;49.000;21.242;2024-02-21T05:01:38;99137.94;;;22.89;37.37
57574;BME280;68988;49.000;21.242;2024-02-21T05:04:04;99134.19;;;22.91;37.38
57574;BME280;68988;49.000;21.242;2024-02-21T05:06:29;99134.19;;;22.91;37.31
57574;BME280;68988;49.000;21.242;2024-02-21T05:08:55;99136.59;;;22.92;37.42
57574;BME280;68988;49.000;21.242;2024-02-21T05:11:21;99132.34;;;22.91;37.41
57574;BME280;68988;49.000;21.242;2024-02-21T05:13:46;99131.50;;;22.91;37.38
57574;BME280;68988;49.000;21.242;2024-02-21T05:16:12;99134.75;;;22.93;37.44
57574;BME280;68988;49.000;21.242;2024-02-21T05:18:37;99134.75;;;22.93;37.44
57574;BME280;68988;49.000;21.242;2024-02-21T05:21:03;99138.78;;;22.95;37.29
57574;BME280;68988;49.000;21.242;2024-02-21T05:23:28;99129.72;;;22.96;37.20
57574;BME280;68988;49.000;21.242;2024-02-21T05:25:54;99137.75;;;22.96;37.43
57574;BME280;68988;49.000;21.242;2024-02-21T05:28:19;99131.34;;;22.97;37.33
57574;BME280;68988;49.000;21.242;2024-02-21T05:30:45;99130.25;;;22.98;37.30
57574;BME280;68988;49.000;21.242;2024-02-21T05:33:10;99137.50;;;22.98;37.45
57574;BME280;68988;49.000;21.242;2024-02-21T05:35:35;99133.78;;;22.99;37.26
57574;BME280;68988;49.000;21.242;2024-02-21T05:38:01;99134.31;;;23.01;37.25
57574;BME280;68988;49.000;21.242;2024-02-21T05:40:30;99136.75;;;23.02;37.39
57574;BME280;68988;49.000;21.242;2024-02-21T05:42:55;99136.50;;;23.04;37.36
57574;BME280;68988;49.000;21.242;2024-02-21T05:45:22;99136.66;;;21.73;33.34
57574;BME280;68988;49.000;21.242;2024-02-21T05:47:48;99142.97;;;20.74;36.69
57574;BME280;68988;49.000;21.242;2024-02-21T05:50:13;99143.59;;;21.57;38.38
57574;BME280;68988;49.000;21.242;2024-02-21T05:52:39;99140.91;;;22.03;36.78
57574;BME280;68988;49.000;21.242;2024-02-21T05:55:06;99143.19;;;22.28;36.34
57574;BME280;68988;49.000;21.242;2024-02-21T05:57:32;99147.50;;;22.46;36.26
57574;BME280;68988;49.000;21.242;2024-02-21T05:59:57;99153.31;;;22.60;36.49
57574;BME280;68988;49.000;21.242;2024-02-21T06:02:22;99151.91;;;22.75;36.31
57574;BME280;68988;49.000;21.242;2024-02-21T06:04:48;99145.88;;;22.84;36.33
57574;BME280;68988;49.000;21.242;2024-02-21T06:07:13;99155.03;;;22.88;36.10
57574;BME280;68988;49.000;21.242;2024-02-21T06:09:38;99143.84;;;22.92;36.25
57574;BME280;68988;49.000;21.242;2024-02-21T06:12:04;99147.13;;;22.99;36.12
57574;BME280;68988;49.000;21.242;2024-02-21T06:14:29;99155.13;;;23.16;35.91
57574;BME280;68988;49.000;21.242;2024-02-21T06:16:54;99152.00;;;23.24;35.96
57574;BME280;68988;49.000;21.242;2024-02-21T06:19:20;99149.72;;;23.33;35.84
57574;BME280;68988;49.000;21.242;2024-02-21T06:21:45;99148.22;;;23.42;35.78
57574;BME280;68988;49.000;21.242;2024-02-21T06:24:10;99149.88;;;23.48;35.69
57574;BME280;68988;49.000;21.242;2024-02-21T06:26:37;99149.13;;;23.53;35.69
57574;BME280;68988;49.000;21.242;2024-02-21T06:29:02;99155.91;;;23.60;35.67
57574;BME280;68988;49.000;21.242;2024-02-21T06:31:28;99157.81;;;23.65;35.78
57574;BME280;68988;49.000;21.242;2024-02-21T06:33:54;99153.00;;;23.67;36.00
57574;BME280;68988;49.000;21.242;2024-02-21T06:36:19;99154.69;;;23.73;35.58
57574;BME280;68988;49.000;21.242;2024-02-21T06:38:44;99163.59;;;23.79;35.68
57574;BME280;68988;49.000;21.242;2024-02-21T06:41:17;99160.41;;;23.82;35.79
57574;BME280;68988;49.000;21.242;2024-02-21T06:43:47;99163.06;;;23.82;35.71
57574;BME280;68988;49.000;21.242;2024-02-21T06:46:27;99154.59;;;23.90;35.55
57574;BME280;68988;49.000;21.242;2024-02-21T06:49:00;99155.41;;;23.91;35.67
57574;BME280;68988;49.000;21.242;2024-02-21T06:51:26;99148.44;;;23.90;35.54
57574;BME280;68988;49.000;21.242;2024-02-21T06:53:52;99155.72;;;23.94;35.55
57574;BME280;68988;49.000;21.242;2024-02-21T06:56:17;99173.13;;;23.97;35.57
57574;BME280;68988;49.000;21.242;2024-02-21T06:58:43;99156.25;;;23.97;35.58
57574;BME280;68988;49.000;21.242;2024-02-21T07:01:08;99161.66;;;24.02;35.27
57574;BME280;68988;49.000;21.242;2024-02-21T07:03:33;99164.06;;;24.03;35.08
57574;BME280;68988;49.000;21.242;2024-02-21T07:05:59;99160.84;;;24.01;35.05
57574;BME280;68988;49.000;21.242;2024-02-21T07:08:24;99167.34;;;24.05;35.07
57574;BME280;68988;49.000;21.242;2024-02-21T07:10:49;99162.53;;;24.07;34.75
57574;BME280;68988;49.000;21.242;2024-02-21T07:13:15;99170.56;;;24.07;34.58
57574;BME280;68988;49.000;21.242;2024-02-21T07:15:41;99162.00;;;24.10;34.42
57574;BME280;68988;49.000;21.242;2024-02-21T07:18:06;99166.81;;;24.08;34.44
57574;BME280;68988;49.000;21.242;2024-02-21T07:20:32;99169.19;;;24.05;34.31
57574;BME280;68988;49.000;21.242;2024-02-21T07:22:59;99170.00;;;24.05;34.37
57574;BME280;68988;49.000;21.242;2024-02-21T07:25:24;99173.22;;;24.07;34.36
57574;BME280;68988;49.000;21.242;2024-02-21T07:27:50;99167.88;;;24.07;34.32
57574;BME280;68988;49.000;21.242;2024-02-21T07:30:15;99163.81;;;24.05;34.51
57574;BME280;68988;49.000;21.242;2024-02-21T07:32:40;99161.47;;;24.08;34.25
57574;BME280;68988;49.000;21.242;2024-02-21T07:35:06;99164.94;;;24.09;34.29
57574;BME280;68988;49.000;21.242;2024-02-21T07:37:36;99160.38;;;24.09;34.30
57574;BME280;68988;49.000;21.242;2024-02-21T07:40:01;99163.06;;;24.09;34.24
57574;BME280;68988;49.000;21.242;2024-02-21T07:42:27;99160.63;;;24.08;34.32
57574;BME280;68988;49.000;21.242;2024-02-21T07:44:53;99153.69;;;24.07;34.42
57574;BME280;68988;49.000;21.242;2024-02-21T07:47:18;99157.16;;;24.07;34.25
57574;BME280;68988;49.000;21.242;2024-02-21T07:49:44;99148.06;;;24.08;34.22
57574;BME280;68988;49.000;21.242;2024-02-21T07:52:11;99142.47;;;24.10;34.39
57574;BME280;68988;49.000;21.242;2024-02-21T07:54:36;99149.41;;;24.11;34.37
57574;BME280;68988;49.000;21.242;2024-02-21T07:57:02;99146.97;;;24.09;34.39
57574;BME280;68988;49.000;21.242;2024-02-21T07:59:28;99141.63;;;24.09;34.56
57574;BME280;68988;49.000;21.242;2024-02-21T08:01:56;99147.56;;;24.11;34.44
57574;BME280;68988;49.000;21.242;2024-02-21T08:04:23;99142.19;;;24.11;34.27
57574;BME280;68988;49.000;21.242;2024-02-21T08:06:52;99141.38;;;24.11;34.49
57574;BME280;68988;49.000;21.242;2024-02-21T08:09:18;99136.53;;;24.08;34.44
57574;BME280;68988;49.000;21.242;2024-02-21T08:11:44;99132.78;;;24.09;34.24
57574;BME280;68988;49.000;21.242;2024-02-21T08:14:09;99141.63;;;24.09;34.53
57574;BME280;68988;49.000;21.242;2024-02-21T08:16:34;99139.53;;;24.11;34.25
57574;BME280;68988;49.000;21.242;2024-02-21T08:19:00;99135.75;;;24.12;34.42
57574;BME280;68988;49.000;21.242;2024-02-21T08:21:27;99143.25;;;24.10;34.39
57574;BME280;68988;49.000;21.242;2024-02-21T08:23:52;99143.53;;;24.14;34.24
57574;BME280;68988;49.000;21.242;2024-02-21T08:26:19;99143.25;;;24.10;34.23
57574;BME280;68988;49.000;21.242;2024-02-21T08:28:44;99140.31;;;24.12;34.10
57574;BME280;68988;49.000;21.242;2024-02-21T08:31:10;99136.59;;;24.13;34.20
57574;BME280;68988;49.000;21.242;2024-02-21T08:33:35;99135.25;;;24.16;34.32
57574;BME280;68988;49.000;21.242;2024-02-21T08:36:00;99144.06;;;24.11;34.54
57574;BME280;68988;49.000;21.242;2024-02-21T08:38:26;99143.00;;;24.12;34.12
57574;BME280;68988;49.000;21.242;2024-02-21T08:40:51;99144.88;;;24.11;34.53
57574;BME280;68988;49.000;21.242;2024-02-21T08:43:16;99136.84;;;24.11;34.57
57574;BME280;68988;49.000;21.242;2024-02-21T08:45:42;99144.38;;;24.15;34.49
57574;BME280;68988;49.000;21.242;2024-02-21T08:48:07;99139.53;;;24.11;34.65
57574;BME280;68988;49.000;21.242;2024-02-21T08:50:33;99144.88;;;24.11;34.67
57574;BME280;68988;49.000;21.242;2024-02-21T08:52:58;99145.16;;;24.15;34.83
57574;BME280;68988;49.000;21.242;2024-02-21T08:55:24;99149.66;;;24.09;34.85
57574;BME280;68988;49.000;21.242;2024-02-21T08:57:49;99149.66;;;24.09;34.89
57574;BME280;68988;49.000;21.242;2024-02-21T09:00:15;99144.38;;;24.15;34.83
57574;BME280;68988;49.000;21.242;2024-02-21T09:02:41;99145.16;;;24.15;34.77
57574;BME280;68988;49.000;21.242;2024-02-21T09:05:10;99148.09;;;24.13;34.98
57574;BME280;68988;49.000;21.242;2024-02-21T09:07:36;99145.94;;;24.10;34.87
57574;BME280;68988;49.000;21.242;2024-02-21T09:10:01;99144.88;;;24.11;34.79
57574;BME280;68988;49.000;21.242;2024-02-21T09:12:26;99136.53;;;24.08;34.89
57574;BME280;68988;49.000;21.242;2024-02-21T09:14:52;99139.47;;;24.06;34.87
57574;BME280;68988;49.000;21.242;2024-02-21T09:17:17;99138.41;;;24.07;34.77
57574;BME280;68988;49.000;21.242;2024-02-21T09:19:43;99143.25;;;24.10;34.75
57574;BME280;68988;49.000;21.242;2024-02-21T09:22:09;99131.41;;;24.06;34.65
57574;BME280;68988;49.000;21.242;2024-02-21T09:24:34;99122.88;;;24.09;34.76
57574;BME280;68988;49.000;21.242;2024-02-21T09:27:00;99131.47;;;24.11;34.42
57574;BME280;68988;49.000;21.242;2024-02-21T09:29:25;99134.66;;;24.08;34.75
57574;BME280;68988;49.000;21.242;2024-02-21T09:31:51;99122.94;;;24.15;34.83
57574;BME280;68988;49.000;21.242;2024-02-21T09:34:17;99124.25;;;24.12;34.51
57574;BME280;68988;49.000;21.242;2024-02-21T09:36:43;99126.13;;;24.11;34.76
57574;BME280;68988;49.000;21.242;2024-02-21T09:39:10;99116.50;;;24.16;34.86
57574;BME280;68988;49.000;21.242;2024-02-21T09:41:42;99113.53;;;24.12;34.72
57574;BME280;68988;49.000;21.242;2024-02-21T09:44:13;99116.47;;;24.10;34.86
57574;BME280;68988;49.000;21.242;2024-02-21T09:46:46;99110.31;;;24.10;35.06
57574;BME280;68988;49.000;21.242;2024-02-21T09:51:41;99095.03;;;24.10;35.67
57574;BME280;68988;49.000;21.242;2024-02-21T09:54:07;99089.66;;;24.10;35.51
57574;BME280;68988;49.000;21.242;2024-02-21T09:56:33;99083.78;;;24.13;35.49
57574;BME280;68988;49.000;21.242;2024-02-21T09:58:59;99073.59;;;24.10;35.49
57574;BME280;68988;49.000;21.242;2024-02-21T10:01:24;99074.09;;;24.07;35.43
57574;BME280;68988;49.000;21.242;2024-02-21T10:03:50;99060.44;;;24.09;35.42
57574;BME280;68988;49.000;21.242;2024-02-21T10:06:16;99077.91;;;24.11;35.57
57574;BME280;68988;49.000;21.242;2024-02-21T10:08:41;99090.19;;;24.07;35.72
57574;BME280;68988;49.000;21.242;2024-02-21T10:11:06;99085.63;;;24.08;35.75
57574;BME280;68988;49.000;21.242;2024-02-21T10:13:34;99071.41;;;24.02;35.49
57574;BME280;68988;49.000;21.242;2024-02-21T10:16:04;99075.47;;;24.10;35.49
57574;BME280;68988;49.000;21.242;2024-02-21T10:18:30;99078.44;;;24.13;35.45
57574;BME280;68988;49.000;21.242;2024-02-21T10:23:27;99067.44;;;24.10;35.44
57574;BME280;68988;49.000;21.242;2024-02-21T10:25:52;99060.75;;;24.12;35.49
57574;BME280;68988;49.000;21.242;2024-02-21T10:28:17;99054.88;;;24.16;35.30
57574;BME280;68988;49.000;21.242;2024-02-21T10:30:51;99054.06;;;24.15;35.52
57574;BME280;68988;49.000;21.242;2024-02-21T10:33:17;99054.88;;;24.16;35.38
57574;BME280;68988;49.000;21.242;2024-02-21T10:35:46;99048.19;;;24.18;35.29
57574;BME280;68988;49.000;21.242;2024-02-21T10:38:12;99051.13;;;24.17;35.27
57574;BME280;68988;49.000;21.242;2024-02-21T10:40:38;99040.13;;;24.13;35.49
57574;BME280;68988;49.000;21.242;2024-02-21T10:43:05;99042.56;;;24.20;35.57
57574;BME280;68988;49.000;21.242;2024-02-21T10:45:35;99038.84;;;24.21;35.25
57574;BME280;68988;49.000;21.242;2024-02-21T10:48:14;99036.94;;;24.21;35.41
57574;BME280;68988;49.000;21.242;2024-02-21T10:51:03;99026.00;;;24.28;35.20
57574;BME280;68988;49.000;21.242;2024-02-21T10:56:31;99021.69;;;24.22;35.26
57574;BME280;68988;49.000;21.242;2024-02-21T10:59:01;99016.03;;;24.18;35.32
57574;BME280;68988;49.000;21.242;2024-02-21T11:01:28;99010.41;;;24.20;35.23
57574;BME280;68988;49.000;21.242;2024-02-21T11:03:56;99006.16;;;24.24;35.08
57574;BME280;68988;49.000;21.242;2024-02-21T11:06:22;99001.88;;;24.28;35.03
57574;BME280;68988;49.000;21.242;2024-02-21T11:09:07;99000.31;;;24.32;34.82
57574;BME280;68988;49.000;21.242;2024-02-21T11:11:37;98994.94;;;24.27;35.00
57574;BME280;68988;49.000;21.242;2024-02-21T11:14:20;98985.53;;;24.29;35.05
57574;BME280;68988;49.000;21.242;2024-02-21T11:16:46;98984.75;;;24.29;34.99
57574;BME280;68988;49.000;21.242;2024-02-21T11:19:28;98986.31;;;24.25;35.10
57574;BME280;68988;49.000;21.242;2024-02-21T11:21:57;98979.09;;;24.25;35.49
57574;BME280;68988;49.000;21.242;2024-02-21T11:27:11;98977.75;;;24.28;35.19
57574;BME280;68988;49.000;21.242;2024-02-21T11:29:40;98972.72;;;24.42;34.95
57574;BME280;68988;49.000;21.242;2024-02-21T11:32:09;98968.16;;;24.37;34.89
57574;BME280;68988;49.000;21.242;2024-02-21T11:34:35;98959.00;;;24.28;35.29
57574;BME280;68988;49.000;21.242;2024-02-21T11:37:00;98956.38;;;24.38;34.61
57574;BME280;68988;49.000;21.242;2024-02-21T11:39:26;98962.00;;;24.42;35.03
57574;BME280;68988;49.000;21.242;2024-02-21T11:42:04;98952.38;;;24.41;35.10
57574;BME280;68988;49.000;21.242;2024-02-21T11:44:31;98952.06;;;24.37;35.32
57574;BME280;68988;49.000;21.242;2024-02-21T11:46:57;98943.50;;;24.40;35.06
57574;BME280;68988;49.000;21.242;2024-02-21T11:49:25;98938.97;;;24.41;34.97
57574;BME280;68988;49.000;21.242;2024-02-21T11:52:00;98936.56;;;24.44;34.98
57574;BME280;68988;49.000;21.242;2024-02-21T11:54:27;98932.00;;;24.45;34.89
57574;BME280;68988;49.000;21.242;2024-02-21T11:56:53;98937.63;;;24.43;35.19
57574;BME280;68988;49.000;21.242;2024-02-21T11:59:18;98935.47;;;24.40;35.05
57574;BME280;68988;49.000;21.242;2024-02-21T12:01:43;98929.56;;;24.43;34.85
57574;BME280;68988;49.000;21.242;2024-02-21T12:04:09;98932.78;;;24.40;34.74
57574;BME280;68988;49.000;21.242;2024-02-21T12:06:35;98936.81;;;24.43;34.82
57574;BME280;68988;49.000;21.242;2024-02-21T12:09:00;98929.06;;;24.46;34.85
57574;BME280;68988;49.000;21.242;2024-02-21T12:11:26;98934.44;;;24.52;34.80
57574;BME280;68988;49.000;21.242;2024-02-21T12:14:01;98933.91;;;24.55;34.63
57574;BME280;68988;49.000;21.242;2024-02-21T12:16:27;98928.50;;;24.44;34.74
57574;BME280;68988;49.000;21.242;2024-02-21T12:18:54;98940.88;;;24.45;34.89
57574;BME280;68988;49.000;21.242;2024-02-21T12:21:24;98934.44;;;24.52;34.67
57574;BME280;68988;49.000;21.242;2024-02-21T12:23:49;98933.34;;;24.42;34.79
57574;BME280;68988;49.000;21.242;2024-02-21T12:26:14;98927.97;;;24.42;34.61
57574;BME280;68988;49.000;21.242;2024-02-21T12:28:40;98927.16;;;24.37;34.42
57574;BME280;68988;49.000;21.242;2024-02-21T12:31:05;98925.25;;;24.37;34.72
57574;BME280;68988;49.000;21.242;2024-02-21T12:33:31;98930.63;;;24.32;34.85
57574;BME280;68988;49.000;21.242;2024-02-21T12:35:58;98926.06;;;24.33;34.65
57574;BME280;68988;49.000;21.242;2024-02-21T12:38:23;98920.16;;;24.30;34.60
57574;BME280;68988;49.000;21.242;2024-02-21T12:40:48;98918.84;;;24.38;34.39
57574;BME280;68988;49.000;21.242;2024-02-21T12:43:14;98913.22;;;24.40;34.16
57574;BME280;68988;49.000;21.242;2024-02-21T12:45:39;98920.75;;;24.43;34.38
57574;BME280;68988;49.000;21.242;2024-02-21T12:48:05;98911.13;;;24.47;34.50
57574;BME280;68988;49.000;21.242;2024-02-21T12:50:30;98911.38;;;24.45;34.58
57574;BME280;68988;49.000;21.242;2024-02-21T12:52:56;98901.97;;;24.48;34.71
57574;BME280;68988;49.000;21.242;2024-02-21T12:55:23;98905.75;;;24.52;34.46